地図

経路データ

SID SEASON NUMBER BASIN SUBBASIN NAME ISO_TIME NATURE LAT LON WMO_WIND WMO_PRES WMO_AGENCY TRACK_TYPE DIST2LAND LANDFALL IFLAG USA_AGENCY USA_ATCF_ID USA_LAT USA_LON USA_RECORD USA_STATUS USA_WIND USA_PRES USA_SSHS USA_R34_NE USA_R34_SE USA_R34_SW USA_R34_NW USA_R50_NE USA_R50_SE USA_R50_SW USA_R50_NW USA_R64_NE USA_R64_SE USA_R64_SW USA_R64_NW USA_POCI USA_ROCI USA_RMW USA_EYE TOKYO_LAT TOKYO_LON TOKYO_GRADE TOKYO_WIND TOKYO_PRES TOKYO_R50_DIR TOKYO_R50_LONG TOKYO_R50_SHORT TOKYO_R30_DIR TOKYO_R30_LONG TOKYO_R30_SHORT TOKYO_LAND CMA_LAT CMA_LON CMA_CAT CMA_WIND CMA_PRES HKO_LAT HKO_LON HKO_CAT HKO_WIND HKO_PRES NEWDELHI_LAT NEWDELHI_LON NEWDELHI_GRADE NEWDELHI_WIND NEWDELHI_PRES NEWDELHI_CI NEWDELHI_DP NEWDELHI_POCI REUNION_LAT REUNION_LON REUNION_TYPE REUNION_WIND REUNION_PRES REUNION_TNUM REUNION_CI REUNION_RMW REUNION_R34_NE REUNION_R34_SE REUNION_R34_SW REUNION_R34_NW REUNION_R50_NE REUNION_R50_SE REUNION_R50_SW REUNION_R50_NW REUNION_R64_NE REUNION_R64_SE REUNION_R64_SW REUNION_R64_NW BOM_LAT BOM_LON BOM_TYPE BOM_WIND BOM_PRES BOM_TNUM BOM_CI BOM_RMW BOM_R34_NE BOM_R34_SE BOM_R34_SW BOM_R34_NW BOM_R50_NE BOM_R50_SE BOM_R50_SW BOM_R50_NW BOM_R64_NE BOM_R64_SE BOM_R64_SW BOM_R64_NW BOM_ROCI BOM_POCI BOM_EYE BOM_POS_METHOD BOM_PRES_METHOD NADI_LAT NADI_LON NADI_CAT NADI_WIND NADI_PRES WELLINGTON_LAT WELLINGTON_LON WELLINGTON_WIND WELLINGTON_PRES DS824_LAT DS824_LON DS824_STAGE DS824_WIND DS824_PRES TD9636_LAT TD9636_LON TD9636_STAGE TD9636_WIND TD9636_PRES TD9635_LAT TD9635_LON TD9635_WIND TD9635_PRES TD9635_ROCI NEUMANN_LAT NEUMANN_LON NEUMANN_CLASS NEUMANN_WIND NEUMANN_PRES MLC_LAT MLC_LON MLC_CLASS MLC_WIND MLC_PRES USA_GUST BOM_GUST BOM_GUST_PER REUNION_GUST REUNION_GUST_PER USA_SEAHGT USA_SEARAD_NE USA_SEARAD_SE USA_SEARAD_SW USA_SEARAD_NW STORM_SPEED STORM_DIR
1942194N16141 1942 26 WP MM NOT_NAMED 1942-07-12 12:00:00 NR 16.3000 141.100 main 1742 1644 __________O___ -1 16.3000 141.100 4 22 281
1942194N16141 1942 26 WP MM NOT_NAMED 1942-07-12 15:00:00 NR 16.5150 139.991 main 1634 1538 __________P___ -1 16.5150 139.991 4 21 282
1942194N16141 1942 26 WP MM NOT_NAMED 1942-07-12 18:00:00 NR 16.7315 138.914 main 1528 1444 __________P___ -1 16.7315 138.914 4 20 282
1942194N16141 1942 26 WP MM NOT_NAMED 1942-07-12 21:00:00 NR 16.9570 137.906 main 1438 1357 __________P___ -1 16.9570 137.906 4 19 284
1942194N16141 1942 26 WP MM NOT_NAMED 1942-07-13 00:00:00 NR 17.2000 137.000 main 1357 1298 __________O___ -1 17.2000 137.000 4 17 288
1942194N16141 1942 26 WP MM NOT_NAMED 1942-07-13 03:00:00 NR 17.4661 136.220 main 1293 1247 __________P___ -1 17.4661 136.220 4 15 291
1942194N16141 1942 26 WP MM NOT_NAMED 1942-07-13 06:00:00 NR 17.7467 135.537 main 1238 1199 __________P___ -1 17.7467 135.537 4 14 294
1942194N16141 1942 26 WP MM NOT_NAMED 1942-07-13 09:00:00 NR 18.0291 134.911 main 1199 1164 __________P___ -1 18.0291 134.911 4 13 295
1942194N16141 1942 26 WP MM NOT_NAMED 1942-07-13 12:00:00 NR 18.3000 134.300 main 1164 1118 __________O___ -1 18.3000 134.300 4 13 293
1942194N16141 1942 26 WP MM NOT_NAMED 1942-07-13 15:00:00 NR 18.5471 133.626 main 1109 1068 __________P___ -1 18.5471 133.626 4 14 291
1942194N16141 1942 26 WP MM NOT_NAMED 1942-07-13 18:00:00 NR 18.7795 132.962 main 1068 1026 __________P___ -1 18.7795 132.962 4 13 290
1942194N16141 1942 26 WP MM NOT_NAMED 1942-07-13 21:00:00 NR 18.9972 132.317 main 1017 978 __________P___ -1 18.9972 132.317 4 13 289
1942194N16141 1942 26 WP MM NOT_NAMED 1942-07-14 00:00:00 NR 19.2000 131.700 main 978 932 __________O___ -1 19.2000 131.700 4 12 289
1942194N16141 1942 26 WP MM NOT_NAMED 1942-07-14 03:00:00 NR 19.3925 131.117 main 932 882 __________P___ -1 19.3925 131.117 4 11 289
1942194N16141 1942 26 WP MM NOT_NAMED 1942-07-14 06:00:00 NR 19.5714 130.562 main 882 832 __________P___ -1 19.5714 130.562 4 11 289
1942194N16141 1942 26 WP MM NOT_NAMED 1942-07-14 09:00:00 NR 19.7395 130.026 main 822 774 __________P___ -1 19.7395 130.026 4 11 288
1942194N16141 1942 26 WP MM NOT_NAMED 1942-07-14 12:00:00 NR 19.9000 129.500 main 774 728 __________O___ -1 19.9000 129.500 4 10 288
1942194N16141 1942 26 WP MM NOT_NAMED 1942-07-14 15:00:00 NR 20.0685 128.980 main 728 681 __________P___ -1 20.0685 128.980 4 10 289
1942194N16141 1942 26 WP MM NOT_NAMED 1942-07-14 18:00:00 NR 20.2288 128.465 main 681 638 __________P___ -1 20.2288 128.465 4 10 287
1942194N16141 1942 26 WP MM NOT_NAMED 1942-07-14 21:00:00 NR 20.3747 127.942 main 628 583 __________P___ -1 20.3747 127.942 4 10 285
1942194N16141 1942 26 WP MM NOT_NAMED 1942-07-15 00:00:00 NR 20.5000 127.400 main 583 531 __________O___ -1 20.5000 127.400 4 11 281
1942194N16141 1942 26 WP MM NOT_NAMED 1942-07-15 03:00:00 NR 20.6018 126.740 main 522 474 __________P___ -1 20.6018 126.740 4 13 278
1942194N16141 1942 26 WP MM NOT_NAMED 1942-07-15 06:00:00 NR 20.6818 126.072 main 474 422 __________P___ -1 20.6818 126.072 4 12 277
1942194N16141 1942 26 WP MM NOT_NAMED 1942-07-15 09:00:00 NR 20.7456 125.468 main 422 389 __________P___ -1 20.7456 125.468 4 10 277
1942194N16141 1942 26 WP MM NOT_NAMED 1942-07-15 12:00:00 NR 20.8000 125.000 main 389 375 __________O___ -1 20.8000 125.000 4 7 281
1942194N16141 1942 26 WP MM NOT_NAMED 1942-07-15 15:00:00 NR 20.8720 124.776 main 383 375 __________P___ -1 20.8720 124.776 4 3 295
1942194N16141 1942 26 WP MM NOT_NAMED 1942-07-15 18:00:00 NR 20.9359 124.687 main 375 375 __________P___ -1 20.9359 124.687 4 2 314
1942194N16141 1942 26 WP MM NOT_NAMED 1942-07-15 21:00:00 NR 20.9818 124.655 main 384 377 __________P___ -1 20.9818 124.655 4 1 308
1942194N16141 1942 26 WP MM NOT_NAMED 1942-07-16 00:00:00 NR 21.0000 124.600 main 377 364 __________O___ -1 21.0000 124.600 4 2 268
1942194N16141 1942 26 WP MM NOT_NAMED 1942-07-16 03:00:00 NR 20.9748 124.411 main 364 343 __________P___ -1 20.9748 124.411 4 4 259
1942194N16141 1942 26 WP MM NOT_NAMED 1942-07-16 06:00:00 NR 20.9226 124.187 main 343 331 __________P___ -1 20.9226 124.187 4 5 255
1942194N16141 1942 26 WP MM NOT_NAMED 1942-07-16 09:00:00 NR 20.8591 123.945 main 325 305 __________P___ -1 20.8591 123.945 4 5 255
1942194N16141 1942 26 WP MM NOT_NAMED 1942-07-16 12:00:00 NR 20.8000 123.700 main 305 295 __________O___ -1 20.8000 123.700 4 5 258
1942194N16141 1942 26 WP MM NOT_NAMED 1942-07-16 15:00:00 NR 20.7678 123.471 main 295 277 __________P___ -1 20.7678 123.471 4 4 262
1942194N16141 1942 26 WP MM NOT_NAMED 1942-07-16 18:00:00 NR 20.7424 123.243 main 273 255 __________P___ -1 20.7424 123.243 4 4 264
1942194N16141 1942 26 WP MM NOT_NAMED 1942-07-16 21:00:00 NR 20.7209 123.018 main 255 238 __________P___ -1 20.7209 123.018 4 4 264
1942194N16141 1942 26 WP MM NOT_NAMED 1942-07-17 00:00:00 NR 20.7000 122.800 main 238 221 __________O___ -1 20.7000 122.800 4 4 263
1942194N16141 1942 26 WP MM NOT_NAMED 1942-07-17 03:00:00 NR 20.6748 122.601 main 221 205 __________P___ -1 20.6748 122.601 4 4 262
1942194N16141 1942 26 WP MM NOT_NAMED 1942-07-17 06:00:00 NR 20.6497 122.408 main 212 198 __________P___ -1 20.6497 122.408 4 4 262
1942194N16141 1942 26 WP MM NOT_NAMED 1942-07-17 09:00:00 NR 20.6248 122.210 main 198 184 __________P___ -1 20.6248 122.210 4 4 263
1942194N16141 1942 26 WP MM NOT_NAMED 1942-07-17 12:00:00 NR 20.6000 122.000 main 184 172 __________O___ -1 20.6000 122.000 4 4 262
1942194N16141 1942 26 WP MM NOT_NAMED 1942-07-17 15:00:00 NR 20.5668 121.768 main 172 162 __________P___ -1 20.5668 121.768 4 5 262
1942194N16141 1942 26 WP MM NOT_NAMED 1942-07-17 18:00:00 NR 20.5349 121.522 main 168 161 __________P___ -1 20.5349 121.522 4 5 263
1942194N16141 1942 26 WP MM NOT_NAMED 1942-07-17 21:00:00 NR 20.5105 121.265 main 161 156 __________P___ -1 20.5105 121.265 4 5 266
1942194N16141 1942 26 WP MM NOT_NAMED 1942-07-18 00:00:00 NR 20.5000 121.000 main 156 156 __________O___ -1 20.5000 121.000 4 5 269
1942194N16141 1942 26 WP MM NOT_NAMED 1942-07-18 03:00:00 NR 20.4984 120.724 main 156 156 __________P___ -1 20.4984 120.724 4 5 271
1942194N16141 1942 26 WP MM NOT_NAMED 1942-07-18 06:00:00 NR 20.5125 120.442 main 159 159 __________P___ -1 20.5125 120.442 4 5 275
1942194N16141 1942 26 WP MM NOT_NAMED 1942-07-18 09:00:00 NR 20.5453 120.165 main 164 158 __________P___ -1 20.5453 120.165 4 5 280
1942194N16141 1942 26 WP MM NOT_NAMED 1942-07-18 12:00:00 NR 20.6000 119.900 main 167 167 __________O___ -1 20.6000 119.900 4 5 285
1942194N16141 1942 26 WP MM NOT_NAMED 1942-07-18 15:00:00 NR 20.6699 119.681 main 169 169 __________P___ -1 20.6699 119.681 4 4 292
1942194N16141 1942 26 WP MM NOT_NAMED 1942-07-18 18:00:00 NR 20.7619 119.472 main 174 174 __________P___ -1 20.7619 119.472 4 4 297
1942194N16141 1942 26 WP MM NOT_NAMED 1942-07-18 21:00:00 NR 20.8730 119.253 main 183 183 __________P___ -1 20.8730 119.253 4 5 298
1942194N16141 1942 26 WP MM NOT_NAMED 1942-07-19 00:00:00 NR 21.0000 119.000 main 202 202 __________O___ -1 21.0000 119.000 4 6 296
1942194N16141 1942 26 WP MM NOT_NAMED 1942-07-19 03:00:00 NR 21.1275 118.694 main 225 225 __________P___ -1 21.1275 118.694 4 7 294
1942194N16141 1942 26 WP MM NOT_NAMED 1942-07-19 06:00:00 NR 21.2699 118.352 main 237 227 __________P___ -1 21.2699 118.352 4 7 294
1942194N16141 1942 26 WP MM NOT_NAMED 1942-07-19 09:00:00 NR 21.4274 117.984 main 227 184 __________P___ -1 21.4274 117.984 4 8 295
1942194N16141 1942 26 WP MM NOT_NAMED 1942-07-19 12:00:00 NR 21.6000 117.600 main 184 147 __________O___ -1 21.6000 117.600 4 8 298
1942194N16141 1942 26 WP MM NOT_NAMED 1942-07-19 15:00:00 NR 21.7970 117.251 main 147 108 __________P___ -1 21.7970 117.251 4 8 301
1942194N16141 1942 26 WP MM NOT_NAMED 1942-07-19 18:00:00 NR 22.0061 116.882 main 108 78 __________P___ -1 22.0061 116.882 4 8 300
1942194N16141 1942 26 WP MM NOT_NAMED 1942-07-19 21:00:00 NR 22.2123 116.473 main 78 39 __________P___ -1 22.2123 116.473 4 9 296
1942194N16141 1942 26 WP MM NOT_NAMED 1942-07-20 00:00:00 NR 22.4000 116.000 main 39 11 __________O___ -1 22.4000 116.000 4 10 290
1942194N16141 1942 26 WP MM NOT_NAMED 1942-07-20 03:00:00 NR 22.5591 115.440 main 11 0 __________P___ -1 22.5591 115.440 4 11 285
1942194N16141 1942 26 WP MM NOT_NAMED 1942-07-20 06:00:00 NR 22.6954 114.818 main 0 0 __________P___ -1 22.6954 114.818 4 12 282
1942194N16141 1942 26 WP MM NOT_NAMED 1942-07-20 09:00:00 NR 22.8089 114.162 main 0 0 __________P___ -1 22.8089 114.162 4 12 280
1942194N16141 1942 26 WP MM NOT_NAMED 1942-07-20 12:00:00 NR 22.9000 113.500 main 0 0 __________O___ -1 22.9000 113.500 4 12 278
1942194N16141 1942 26 WP MM NOT_NAMED 1942-07-20 15:00:00 NR 22.9701 112.855 main 0 0 __________P___ -1 22.9701 112.855 4 12 276
1942194N16141 1942 26 WP MM NOT_NAMED 1942-07-20 18:00:00 NR 23.0236 112.228 main 0 0 __________P___ -1 23.0236 112.228 4 11 275
1942194N16141 1942 26 WP MM NOT_NAMED 1942-07-20 21:00:00 NR 23.0653 111.611 main 0 0 __________P___ -1 23.0653 111.611 4 11 274
1942194N16141 1942 26 WP MM NOT_NAMED 1942-07-21 00:00:00 NR 23.1000 111.000 main 0 __________O___ -1 23.1000 111.000 4 11 274

デジタル台風データ・検索

IBTrACS Databaseについて

本データベースは、米国NOAAが公開する1842年以降の世界の熱帯低気圧のベストトラックデータアーカイブInternational Best Track Archive for Climate Stewardship (IBTrACS)を、ウェブで閲覧しやすい形式に変換したものです。

最終更新日:2021-10-25